Time;durP1;ratioP1;P1;durP2;ratioP2;P2;SDS_P1;SDS_P2;PMS_P1;PMS_P2;Temp;Humidity;BMP_temperature;BMP_pressure;BME280_temperature;BME280_humidity;BME280_pressure;Samples;Min_cycle;Max_cycle;Signal;HPM_P1;HPM_P2
2023/08/05 00:00:45;;;;;;;6.28;5.38;;;;;;;;;;5063632;28;20031;-65
2023/08/05 00:03:10;;;;;;;10.35;7.00;;;;;;;;;;5058898;28;20037;-65
2023/08/05 00:05:37;;;;;;;8.00;6.25;;;;;;;;;;5048360;28;20866;-65
2023/08/05 00:08:03;;;;;;;8.82;6.28;;;;;;;;;;5056516;28;20015;-65
2023/08/05 00:10:28;;;;;;;7.85;6.20;;;;;;;;;;5063872;28;20084;-65
2023/08/05 00:12:54;;;;;;;7.47;5.88;;;;;;;;;;5050000;28;20128;-65
2023/08/05 00:15:19;;;;;;;10.35;6.72;;;;;;;;;;5051276;28;20024;-65
2023/08/05 00:17:44;;;;;;;10.80;5.77;;;;;;;;;;5049533;28;20024;-65
2023/08/05 00:20:11;;;;;;;8.20;6.50;;;;;;;;;;5088854;28;20841;-65
2023/08/05 00:22:37;;;;;;;6.75;5.82;;;;;;;;;;5110264;28;20373;-65
2023/08/05 00:25:02;;;;;;;7.40;5.60;;;;;;;;;;5099923;28;20022;-65
2023/08/05 00:27:27;;;;;;;7.43;5.40;;;;;;;;;;5104454;28;20077;-65
2023/08/05 00:29:53;;;;;;;8.13;5.97;;;;;;;;;;5106089;28;20481;-65
2023/08/05 00:32:19;;;;;;;6.75;6.00;;;;;;;;;;5101323;28;20729;-65
2023/08/05 00:34:44;;;;;;;8.57;6.05;;;;;;;;;;5102780;28;20027;-64
2023/08/05 00:37:09;;;;;;;11.77;6.33;;;;;;;;;;5095880;28;20069;-64
2023/08/05 00:39:34;;;;;;;7.40;6.57;;;;;;;;;;5073816;28;20321;-65
2023/08/05 00:42:00;;;;;;;8.10;6.05;;;;;;;;;;5058188;28;20389;-65
2023/08/05 00:44:25;;;;;;;7.03;5.85;;;;;;;;;;5052266;28;20039;-65
2023/08/05 00:46:52;;;;;;;7.70;6.28;;;;;;;;;;5058378;28;20016;-66
2023/08/05 00:49:17;;;;;;;8.43;6.80;;;;;;;;;;5046765;28;20027;-66
2023/08/05 00:51:42;;;;;;;8.27;7.20;;;;;;;;;;5055881;28;20891;-66
2023/08/05 00:54:07;;;;;;;7.65;6.88;;;;;;;;;;5083033;28;20678;-66
2023/08/05 00:56:33;;;;;;;8.57;6.13;;;;;;;;;;5094982;28;20497;-66
2023/08/05 00:58:58;;;;;;;7.65;6.68;;;;;;;;;;5094856;28;20024;-65
2023/08/05 01:01:23;;;;;;;7.95;6.45;;;;;;;;;;5092008;28;20102;-66
2023/08/05 01:03:49;;;;;;;8.68;6.35;;;;;;;;;;5091821;28;20421;-66
2023/08/05 01:06:14;;;;;;;7.82;6.95;;;;;;;;;;5095773;28;20107;-65
2023/08/05 01:08:40;;;;;;;9.70;6.32;;;;;;;;;;5094148;28;20046;-65
2023/08/05 01:11:05;;;;;;;8.02;6.80;;;;;;;;;;5112390;28;20034;-66
2023/08/05 01:13:31;;;;;;;7.82;7.00;;;;;;;;;;5098862;28;20019;-66
2023/08/05 01:15:56;;;;;;;8.77;7.88;;;;;;;;;;5111889;28;20386;-65
2023/08/05 01:18:23;;;;;;;9.93;7.33;;;;;;;;;;5111601;28;20068;-65
2023/08/05 01:20:50;;;;;;;9.95;6.95;;;;;;;;;;5098952;28;20311;-65
2023/08/05 01:23:20;;;;;;;9.60;7.60;;;;;;;;;;5111618;28;20490;-65
2023/08/05 01:25:45;;;;;;;9.45;6.90;;;;;;;;;;5103295;28;20069;-65
2023/08/05 01:28:11;;;;;;;10.25;7.53;;;;;;;;;;5106535;28;20031;-65
2023/08/05 01:30:37;;;;;;;11.90;7.10;;;;;;;;;;5112233;28;20022;-65
2023/08/05 01:33:02;;;;;;;7.53;6.82;;;;;;;;;;5111098;28;20035;-65
2023/08/05 01:35:28;;;;;;;9.30;7.32;;;;;;;;;;5103541;28;20024;-65
2023/08/05 01:37:53;;;;;;;8.85;7.95;;;;;;;;;;5097537;28;20023;-65
2023/08/05 01:40:18;;;;;;;9.32;8.13;;;;;;;;;;5111439;28;20046;-65
2023/08/05 01:42:43;;;;;;;12.35;8.18;;;;;;;;;;5091413;28;20097;-65
2023/08/05 01:45:09;;;;;;;10.50;7.65;;;;;;;;;;5104536;28;20047;-65
2023/08/05 01:47:34;;;;;;;11.98;8.38;;;;;;;;;;5110991;28;20027;-65
2023/08/05 01:49:59;;;;;;;8.45;7.35;;;;;;;;;;5110601;28;20027;-65
2023/08/05 01:52:25;;;;;;;10.10;7.30;;;;;;;;;;5086111;28;20398;-65
2023/08/05 01:54:50;;;;;;;11.23;8.10;;;;;;;;;;5091312;28;20027;-65
2023/08/05 01:57:15;;;;;;;8.82;7.47;;;;;;;;;;5090919;28;20450;-65
2023/08/05 01:59:40;;;;;;;8.20;7.40;;;;;;;;;;5091333;28;20039;-65
2023/08/05 02:02:06;;;;;;;9.27;7.57;;;;;;;;;;5093501;28;20356;-65
2023/08/05 02:04:31;;;;;;;13.23;7.43;;;;;;;;;;5111185;28;20305;-65
2023/08/05 02:06:56;;;;;;;9.23;7.45;;;;;;;;;;5099123;28;20030;-65
2023/08/05 02:09:21;;;;;;;9.73;7.57;;;;;;;;;;5069090;28;20015;-66
2023/08/05 02:11:47;;;;;;;10.07;7.70;;;;;;;;;;5046990;28;20305;-66
2023/08/05 02:14:12;;;;;;;8.30;7.35;;;;;;;;;;5057190;28;20023;-66
2023/08/05 02:16:37;;;;;;;9.93;7.13;;;;;;;;;;5057724;28;20024;-66
2023/08/05 02:19:03;;;;;;;11.60;7.40;;;;;;;;;;5057035;28;20067;-66
2023/08/05 02:21:28;;;;;;;9.60;7.50;;;;;;;;;;5056963;28;20777;-66
2023/08/05 02:23:53;;;;;;;8.57;7.53;;;;;;;;;;5049570;28;20862;-66
2023/08/05 02:26:19;;;;;;;8.45;7.65;;;;;;;;;;5054797;28;20023;-66
2023/08/05 02:28:44;;;;;;;10.88;7.93;;;;;;;;;;5062019;28;20915;-66
2023/08/05 02:31:10;;;;;;;8.68;7.88;;;;;;;;;;5059968;28;20177;-66
2023/08/05 02:33:35;;;;;;;10.43;7.20;;;;;;;;;;5034581;28;20035;-66
2023/08/05 02:36:00;;;;;;;9.20;7.63;;;;;;;;;;5060642;28;20164;-66
2023/08/05 02:38:26;;;;;;;8.23;7.32;;;;;;;;;;5049850;28;20032;-66
2023/08/05 02:40:51;;;;;;;8.45;7.57;;;;;;;;;;5070662;28;20022;-66
2023/08/05 02:43:17;;;;;;;11.45;7.28;;;;;;;;;;5109746;28;20408;-66
2023/08/05 02:45:42;;;;;;;9.80;7.80;;;;;;;;;;5100807;28;20063;-65
2023/08/05 02:48:08;;;;;;;8.98;7.95;;;;;;;;;;5103267;28;20015;-65
2023/08/05 02:50:33;;;;;;;12.45;8.27;;;;;;;;;;5099018;28;20090;-65
2023/08/05 02:52:58;;;;;;;9.88;7.40;;;;;;;;;;5102429;28;20020;-65
2023/08/05 02:55:23;;;;;;;7.72;6.97;;;;;;;;;;5098529;28;20113;-65
2023/08/05 02:57:49;;;;;;;10.13;7.60;;;;;;;;;;5104116;28;20023;-66
2023/08/05 03:00:14;;;;;;;8.43;7.63;;;;;;;;;;5100758;28;20018;-66
2023/08/05 03:02:39;;;;;;;9.48;7.82;;;;;;;;;;5106273;28;20462;-66
2023/08/05 03:05:05;;;;;;;8.68;7.85;;;;;;;;;;5107641;28;20036;-66
2023/08/05 03:07:30;;;;;;;8.55;7.53;;;;;;;;;;5108545;28;20028;-66
2023/08/05 03:09:55;;;;;;;11.30;8.43;;;;;;;;;;5109266;28;20020;-66
2023/08/05 03:12:20;;;;;;;8.53;7.73;;;;;;;;;;5110238;28;20023;-66
2023/08/05 03:14:46;;;;;;;9.77;7.90;;;;;;;;;;5080289;28;20254;-66
2023/08/05 03:17:11;;;;;;;10.63;7.82;;;;;;;;;;5104383;28;20099;-66
2023/08/05 03:19:36;;;;;;;8.38;7.57;;;;;;;;;;5114056;28;20095;-66
2023/08/05 03:22:01;;;;;;;9.48;8.35;;;;;;;;;;5113051;28;20046;-66
2023/08/05 03:24:27;;;;;;;8.50;7.57;;;;;;;;;;5112965;28;20051;-66
2023/08/05 03:26:52;;;;;;;9.37;8.37;;;;;;;;;;5112704;28;20034;-66
2023/08/05 03:29:17;;;;;;;8.63;7.53;;;;;;;;;;5113000;28;20306;-66
2023/08/05 03:31:42;;;;;;;9.13;8.23;;;;;;;;;;5113531;28;20272;-66
2023/08/05 03:34:08;;;;;;;9.23;8.30;;;;;;;;;;5112202;28;20310;-65
2023/08/05 03:36:33;;;;;;;15.37;8.70;;;;;;;;;;5113237;28;20020;-65
2023/08/05 03:38:58;;;;;;;9.98;8.98;;;;;;;;;;5111716;28;20319;-65
2023/08/05 03:41:24;;;;;;;11.87;8.30;;;;;;;;;;5113167;28;20020;-65
2023/08/05 03:43:49;;;;;;;10.48;9.38;;;;;;;;;;5112171;28;20314;-65
2023/08/05 03:46:14;;;;;;;11.30;8.45;;;;;;;;;;5111897;28;20490;-65
2023/08/05 03:48:39;;;;;;;11.05;8.95;;;;;;;;;;5109296;28;20110;-65
2023/08/05 03:51:05;;;;;;;10.05;8.77;;;;;;;;;;5077033;28;20055;-65
2023/08/05 03:53:30;;;;;;;10.75;9.60;;;;;;;;;;5107015;28;20485;-65
2023/08/05 03:55:55;;;;;;;9.97;9.00;;;;;;;;;;5112940;28;20027;-65
2023/08/05 03:58:20;;;;;;;10.77;9.05;;;;;;;;;;5111999;28;20360;-65
2023/08/05 04:00:46;;;;;;;10.13;9.13;;;;;;;;;;5112900;28;20026;-65
2023/08/05 04:03:12;;;;;;;9.07;8.13;;;;;;;;;;5111935;28;20016;-65
2023/08/05 04:05:37;;;;;;;9.80;8.83;;;;;;;;;;5112855;28;20020;-65
2023/08/05 04:08:02;;;;;;;10.45;8.88;;;;;;;;;;5111107;28;20265;-65
2023/08/05 04:10:28;;;;;;;11.70;10.43;;;;;;;;;;5111463;28;20035;-65
2023/08/05 04:12:54;;;;;;;12.57;10.48;;;;;;;;;;5104856;28;20051;-65
2023/08/05 04:15:20;;;;;;;12.32;10.45;;;;;;;;;;5101542;28;20020;-65
2023/08/05 04:17:47;;;;;;;10.68;9.55;;;;;;;;;;5104628;28;20039;-66
2023/08/05 04:20:12;;;;;;;11.45;10.32;;;;;;;;;;5110944;28;20054;-65
2023/08/05 04:22:38;;;;;;;12.32;10.98;;;;;;;;;;5106140;28;20055;-65
2023/08/05 04:25:04;;;;;;;11.93;10.73;;;;;;;;;;5109391;28;20054;-65
2023/08/05 04:27:29;;;;;;;11.85;10.68;;;;;;;;;;5099954;28;20024;-65
2023/08/05 04:29:54;;;;;;;12.35;10.88;;;;;;;;;;5113047;28;20038;-65
2023/08/05 04:32:20;;;;;;;13.35;10.98;;;;;;;;;;5111083;28;20174;-65
2023/08/05 04:34:46;;;;;;;12.13;10.93;;;;;;;;;;5112388;28;20059;-65
2023/08/05 04:37:18;;;;;;;13.02;11.55;;;;;;;;;;5111374;28;20058;-66
2023/08/05 04:39:44;;;;;;;19.17;14.77;;;;;;;;;;5111994;28;20016;-65
2023/08/05 04:42:09;;;;;;;16.55;14.85;;;;;;;;;;5110381;28;20532;-65
2023/08/05 04:44:34;;;;;;;16.42;13.23;;;;;;;;;;5111766;28;20079;-65
2023/08/05 04:46:59;;;;;;;18.80;14.97;;;;;;;;;;5111475;28;20049;-65
2023/08/05 04:49:25;;;;;;;18.80;16.70;;;;;;;;;;5102778;28;20770;-65
2023/08/05 04:51:50;;;;;;;20.83;17.17;;;;;;;;;;5104519;28;20055;-65
2023/08/05 04:54:15;;;;;;;19.33;16.67;;;;;;;;;;5091628;28;20035;-65
2023/08/05 04:56:41;;;;;;;20.73;17.52;;;;;;;;;;5110602;28;20328;-65
2023/08/05 04:59:06;;;;;;;22.13;18.45;;;;;;;;;;5111221;28;20024;-65
2023/08/05 05:01:32;;;;;;;22.10;18.63;;;;;;;;;;5110897;28;20095;-65
2023/08/05 05:03:57;;;;;;;22.00;16.80;;;;;;;;;;5104379;28;20270;-65
2023/08/05 05:06:23;;;;;;;19.58;16.80;;;;;;;;;;5107250;28;20380;-65
2023/08/05 05:08:49;;;;;;;22.55;17.27;;;;;;;;;;5111083;28;20016;-65
2023/08/05 05:11:14;;;;;;;19.02;16.17;;;;;;;;;;5104725;28;20043;-65
2023/08/05 05:13:39;;;;;;;15.00;13.48;;;;;;;;;;5092746;28;20031;-65
2023/08/05 05:16:05;;;;;;;18.63;15.85;;;;;;;;;;5091656;28;20027;-65
2023/08/05 05:18:30;;;;;;;19.35;16.60;;;;;;;;;;5092406;28;20382;-65
2023/08/05 05:20:55;;;;;;;20.77;17.35;;;;;;;;;;5102463;28;20027;-65
2023/08/05 05:23:20;;;;;;;21.83;18.03;;;;;;;;;;5105802;28;20076;-65
2023/08/05 05:25:46;;;;;;;21.15;17.67;;;;;;;;;;5102365;28;20288;-65
2023/08/05 05:28:11;;;;;;;17.00;14.80;;;;;;;;;;5110290;28;20016;-65
2023/08/05 05:30:37;;;;;;;22.63;16.88;;;;;;;;;;5107639;28;20018;-66
2023/08/05 05:33:02;;;;;;;20.33;16.60;;;;;;;;;;5109753;28;20094;-65
2023/08/05 05:35:30;;;;;;;18.75;16.02;;;;;;;;;;5110111;28;20036;-65
2023/08/05 05:37:56;;;;;;;20.15;17.40;;;;;;;;;;5110520;28;20031;-65
2023/08/05 05:40:21;;;;;;;20.80;17.13;;;;;;;;;;5111134;28;20039;-65
2023/08/05 05:42:49;;;;;;;17.63;15.18;;;;;;;;;;5109238;28;20363;-65
2023/08/05 05:45:14;;;;;;;21.17;18.15;;;;;;;;;;5111075;28;20027;-66
2023/08/05 05:47:40;;;;;;;21.23;17.98;;;;;;;;;;5109900;28;20038;-65
2023/08/05 05:50:05;;;;;;;19.83;17.02;;;;;;;;;;5110139;28;20069;-66
2023/08/05 05:52:31;;;;;;;19.38;15.63;;;;;;;;;;5108639;28;20062;-65
2023/08/05 05:54:56;;;;;;;19.27;17.27;;;;;;;;;;5109957;28;20482;-65
2023/08/05 05:57:23;;;;;;;22.73;17.65;;;;;;;;;;5108494;28;20076;-65
2023/08/05 05:59:48;;;;;;;20.10;16.67;;;;;;;;;;5097828;28;20020;-65
2023/08/05 06:02:14;;;;;;;26.80;19.45;;;;;;;;;;5109691;28;20020;-65
2023/08/05 06:04:39;;;;;;;22.00;18.00;;;;;;;;;;5109511;28;20144;-65
2023/08/05 06:07:04;;;;;;;22.02;18.60;;;;;;;;;;5098192;28;20144;-66
2023/08/05 06:09:31;;;;;;;22.05;17.85;;;;;;;;;;5053356;28;20055;-65
2023/08/05 06:11:56;;;;;;;22.50;17.40;;;;;;;;;;5048768;28;20881;-66
2023/08/05 06:14:22;;;;;;;17.90;15.88;;;;;;;;;;5048529;28;20164;-66
2023/08/05 06:16:47;;;;;;;19.73;16.42;;;;;;;;;;5090607;28;20106;-66
2023/08/05 06:19:12;;;;;;;19.67;14.88;;;;;;;;;;5097019;28;20027;-65
2023/08/05 06:21:37;;;;;;;14.95;12.90;;;;;;;;;;5104371;28;20042;-65
2023/08/05 06:24:03;;;;;;;16.48;13.20;;;;;;;;;;5102233;28;20036;-65
2023/08/05 06:26:29;;;;;;;17.15;13.77;;;;;;;;;;5105473;28;20024;-65
2023/08/05 06:28:54;;;;;;;14.30;11.88;;;;;;;;;;5102055;28;20028;-65
2023/08/05 06:31:20;;;;;;;12.63;11.35;;;;;;;;;;5107172;28;20024;-65
2023/08/05 06:33:45;;;;;;;14.13;12.18;;;;;;;;;;5110495;28;20100;-65
2023/08/05 06:36:10;;;;;;;12.50;11.00;;;;;;;;;;5112093;28;20493;-65
2023/08/05 06:38:36;;;;;;;11.27;9.93;;;;;;;;;;5114887;28;20174;-65
2023/08/05 06:41:01;;;;;;;11.95;9.48;;;;;;;;;;5112661;28;20026;-65
2023/08/05 06:43:26;;;;;;;11.80;9.13;;;;;;;;;;5094974;28;20030;-66
2023/08/05 06:45:52;;;;;;;13.47;10.73;;;;;;;;;;5112415;28;20073;-65
2023/08/05 06:48:17;;;;;;;14.25;10.30;;;;;;;;;;5113283;28;20273;-65
2023/08/05 06:50:42;;;;;;;14.57;10.02;;;;;;;;;;5100923;28;20459;-65
2023/08/05 06:53:08;;;;;;;14.35;9.43;;;;;;;;;;5102072;28;20032;-65
2023/08/05 06:55:33;;;;;;;11.43;9.50;;;;;;;;;;5107163;28;20070;-65
2023/08/05 06:57:58;;;;;;;10.10;9.10;;;;;;;;;;5106581;28;20687;-65
2023/08/05 07:00:23;;;;;;;14.55;8.55;;;;;;;;;;5110502;28;20035;-65
2023/08/05 07:02:49;;;;;;;10.40;8.13;;;;;;;;;;5112973;28;20112;-65
2023/08/05 07:05:14;;;;;;;9.02;7.60;;;;;;;;;;5110370;28;20051;-65
2023/08/05 07:07:39;;;;;;;8.82;7.32;;;;;;;;;;5107164;28;20023;-66
2023/08/05 07:10:07;;;;;;;9.32;7.00;;;;;;;;;;5100501;28;20478;-65
2023/08/05 07:12:33;;;;;;;8.00;6.72;;;;;;;;;;5111460;28;20030;-65
2023/08/05 07:14:59;;;;;;;10.00;6.13;;;;;;;;;;5107195;28;20016;-65
2023/08/05 07:17:25;;;;;;;8.07;5.43;;;;;;;;;;5106574;28;20088;-65
2023/08/05 07:19:50;;;;;;;7.88;5.45;;;;;;;;;;5094304;28;20282;-66
2023/08/05 07:22:16;;;;;;;6.80;5.55;;;;;;;;;;5101507;28;20367;-65
2023/08/05 07:24:41;;;;;;;9.55;6.32;;;;;;;;;;5107674;28;20026;-65
2023/08/05 07:27:06;;;;;;;7.20;5.32;;;;;;;;;;5106162;28;20028;-65
2023/08/05 07:29:32;;;;;;;4.85;4.35;;;;;;;;;;5101077;28;20032;-65
2023/08/05 07:31:57;;;;;;;6.97;4.88;;;;;;;;;;5109474;28;20040;-66
2023/08/05 07:34:23;;;;;;;6.18;4.78;;;;;;;;;;5098528;28;20024;-65
2023/08/05 07:36:49;;;;;;;7.25;5.50;;;;;;;;;;5104830;28;20020;-66
2023/08/05 07:39:14;;;;;;;8.02;5.03;;;;;;;;;;5106587;28;20398;-65
2023/08/05 07:41:39;;;;;;;7.23;5.07;;;;;;;;;;5103594;28;20016;-66
2023/08/05 07:44:07;;;;;;;5.15;4.50;;;;;;;;;;5100313;28;20756;-65
2023/08/05 07:46:36;;;;;;;6.07;4.40;;;;;;;;;;5101491;28;20027;-65
2023/08/05 07:49:02;;;;;;;6.20;4.05;;;;;;;;;;5087587;28;20177;-66
2023/08/05 07:51:28;;;;;;;5.53;3.80;;;;;;;;;;5108392;28;20397;-65
2023/08/05 07:53:55;;;;;;;7.15;3.60;;;;;;;;;;5105601;28;20481;-64
2023/08/05 07:56:22;;;;;;;7.35;3.92;;;;;;;;;;5113516;28;20023;-65
2023/08/05 07:58:47;;;;;;;10.90;3.53;;;;;;;;;;5106327;28;20089;-66
2023/08/05 08:01:17;;;;;;;4.82;3.40;;;;;;;;;;5110879;28;20429;-64
2023/08/05 08:03:45;;;;;;;5.15;3.17;;;;;;;;;;5107623;28;20028;-65
2023/08/05 08:06:15;;;;;;;5.38;3.78;;;;;;;;;;5109003;28;20031;-65
2023/08/05 08:08:44;;;;;;;4.43;3.20;;;;;;;;;;5104554;28;20373;-66
2023/08/05 08:11:12;;;;;;;4.78;3.03;;;;;;;;;;5104115;28;20023;-66
2023/08/05 08:13:37;;;;;;;5.47;2.88;;;;;;;;;;5099044;28;20035;-66
2023/08/05 08:16:03;;;;;;;7.22;3.13;;;;;;;;;;5108775;28;20112;-66
2023/08/05 08:18:28;;;;;;;4.68;2.95;;;;;;;;;;5113144;28;20056;-66
2023/08/05 08:20:53;;;;;;;3.33;2.60;;;;;;;;;;5103270;28;20028;-66
2023/08/05 08:23:18;;;;;;;4.10;2.80;;;;;;;;;;5112455;28;20024;-65
2023/08/05 08:25:44;;;;;;;4.32;2.78;;;;;;;;;;5106021;28;20027;-66
2023/08/05 08:28:10;;;;;;;3.70;2.58;;;;;;;;;;5050008;28;20962;-64
2023/08/05 08:30:35;;;;;;;4.10;2.63;;;;;;;;;;5077193;28;20584;-66
2023/08/05 08:33:00;;;;;;;4.63;2.63;;;;;;;;;;5104572;28;20535;-65
2023/08/05 08:35:25;;;;;;;4.03;2.47;;;;;;;;;;5109728;28;20027;-66
2023/08/05 08:37:51;;;;;;;3.97;2.60;;;;;;;;;;5109929;28;20032;-65
2023/08/05 08:40:16;;;;;;;6.07;3.37;;;;;;;;;;5107448;28;20635;-66
2023/08/05 08:42:42;;;;;;;4.70;2.67;;;;;;;;;;5109673;28;20300;-66
2023/08/05 08:45:09;;;;;;;4.15;2.70;;;;;;;;;;5103931;28;20476;-65
2023/08/05 08:47:35;;;;;;;3.33;2.78;;;;;;;;;;5103276;28;20030;-66
2023/08/05 08:50:01;;;;;;;4.57;3.00;;;;;;;;;;5091259;28;20037;-66
2023/08/05 08:52:27;;;;;;;3.83;2.50;;;;;;;;;;5049663;28;20780;-67
2023/08/05 08:54:53;;;;;;;4.03;3.08;;;;;;;;;;5055563;28;20028;-68
2023/08/05 08:57:18;;;;;;;3.80;2.85;;;;;;;;;;5059647;28;21129;-66
2023/08/05 08:59:43;;;;;;;4.07;2.80;;;;;;;;;;5057844;28;20036;-65
2023/08/05 09:02:12;;;;;;;7.27;3.00;;;;;;;;;;5049410;28;20286;-65
2023/08/05 09:04:40;;;;;;;4.65;2.70;;;;;;;;;;5083701;28;20313;-66
2023/08/05 09:07:05;;;;;;;3.60;2.92;;;;;;;;;;5108331;28;20085;-67
2023/08/05 09:09:31;;;;;;;5.68;2.88;;;;;;;;;;5103209;28;20024;-65
2023/08/05 09:11:57;;;;;;;4.90;2.60;;;;;;;;;;5104593;28;20077;-64
2023/08/05 09:14:22;;;;;;;4.43;2.80;;;;;;;;;;5110106;28;20020;-64
2023/08/05 09:16:57;;;;;;;3.95;2.58;;;;;;;;;;5103881;28;20094;-65
2023/08/05 09:19:29;;;;;;;3.78;2.40;;;;;;;;;;5110175;28;20063;-65
2023/08/05 09:21:55;;;;;;;3.42;2.25;;;;;;;;;;5109171;28;20437;-65
2023/08/05 09:24:23;;;;;;;3.60;2.58;;;;;;;;;;5105725;28;20126;-65
2023/08/05 09:26:56;;;;;;;5.28;3.10;;;;;;;;;;5108467;28;20063;-65
2023/08/05 09:29:21;;;;;;;3.28;2.20;;;;;;;;;;5110530;28;20102;-65
2023/08/05 09:32:00;;;;;;;5.50;2.63;;;;;;;;;;5101677;28;20119;-65
2023/08/05 09:34:39;;;;;;;5.07;2.50;;;;;;;;;;5096255;28;20035;-65
2023/08/05 09:37:05;;;;;;;3.95;2.83;;;;;;;;;;5106791;28;20541;-65
2023/08/05 09:39:45;;;;;;;3.65;2.45;;;;;;;;;;5108870;28;20023;-64
2023/08/05 09:42:23;;;;;;;4.30;2.95;;;;;;;;;;5094217;28;20039;-64
2023/08/05 09:44:54;;;;;;;4.78;2.50;;;;;;;;;;5100879;28;20020;-64
2023/08/05 09:47:23;;;;;;;3.42;2.15;;;;;;;;;;5109116;28;20074;-64
2023/08/05 09:49:51;;;;;;;4.70;2.08;;;;;;;;;;5105964;28;20491;-64
2023/08/05 09:52:17;;;;;;;4.13;2.75;;;;;;;;;;5093594;28;20100;-64
2023/08/05 09:54:47;;;;;;;3.50;2.42;;;;;;;;;;5103958;28;20012;-64
2023/08/05 09:57:13;;;;;;;3.50;2.90;;;;;;;;;;5102009;28;20535;-64
2023/08/05 09:59:41;;;;;;;5.15;2.40;;;;;;;;;;5109331;28;20036;-64
2023/08/05 10:02:10;;;;;;;5.75;2.65;;;;;;;;;;5095693;28;20081;-64
2023/08/05 10:04:35;;;;;;;4.05;3.45;;;;;;;;;;5100489;28;20035;-65
2023/08/05 10:07:01;;;;;;;5.15;3.63;;;;;;;;;;5106093;28;20011;-65
2023/08/05 10:09:26;;;;;;;6.38;4.13;;;;;;;;;;5101026;28;20024;-65
2023/08/05 10:11:52;;;;;;;5.30;3.58;;;;;;;;;;5099353;28;20094;-64
2023/08/05 10:14:18;;;;;;;6.35;4.40;;;;;;;;;;5101609;28;20042;-64
2023/08/05 10:16:44;;;;;;;6.90;4.05;;;;;;;;;;5105740;28;20027;-65
2023/08/05 10:19:09;;;;;;;5.03;4.35;;;;;;;;;;5109409;28;20431;-65
2023/08/05 10:21:36;;;;;;;7.50;4.68;;;;;;;;;;5100685;28;20040;-67
2023/08/05 10:24:02;;;;;;;5.65;4.28;;;;;;;;;;5104066;28;20019;-67
2023/08/05 10:26:44;;;;;;;5.78;4.60;;;;;;;;;;5099344;28;20020;-66
2023/08/05 10:29:26;;;;;;;4.72;4.15;;;;;;;;;;5101410;28;20020;-67
2023/08/05 10:32:07;;;;;;;5.70;4.03;;;;;;;;;;5100979;28;20103;-64
2023/08/05 10:34:32;;;;;;;3.40;2.90;;;;;;;;;;5107501;28;20107;-68
2023/08/05 10:36:57;;;;;;;3.83;2.83;;;;;;;;;;5106244;28;20529;-65
2023/08/05 10:39:41;;;;;;;4.00;3.03;;;;;;;;;;5109852;28;20282;-66
2023/08/05 10:42:21;;;;;;;5.13;2.83;;;;;;;;;;5094423;28;20270;-66
2023/08/05 10:44:50;;;;;;;3.75;2.83;;;;;;;;;;5100548;28;20277;-67
2023/08/05 10:47:20;;;;;;;4.50;2.60;;;;;;;;;;5102621;28;20019;-67
2023/08/05 10:49:46;;;;;;;3.33;2.40;;;;;;;;;;5109653;28;20020;-66
2023/08/05 10:52:15;;;;;;;5.72;2.90;;;;;;;;;;5102095;28;20454;-67
2023/08/05 10:54:40;;;;;;;4.60;2.40;;;;;;;;;;5109021;28;20043;-66
2023/08/05 10:57:28;;;;;;;3.83;2.05;;;;;;;;;;5069006;28;20080;-67
2023/08/05 10:59:56;;;;;;;4.05;2.10;;;;;;;;;;5060918;28;20139;-67
2023/08/05 11:02:22;;;;;;;3.25;1.80;;;;;;;;;;5059461;28;20023;-67
2023/08/05 11:04:48;;;;;;;2.42;1.65;;;;;;;;;;5051978;28;20024;-67
2023/08/05 11:07:13;;;;;;;3.08;1.63;;;;;;;;;;5054083;28;20028;-65
2023/08/05 11:09:39;;;;;;;2.50;1.38;;;;;;;;;;5053843;28;20875;-66
2023/08/05 11:12:06;;;;;;;2.97;1.77;;;;;;;;;;5047249;28;20887;-65
2023/08/05 11:14:32;;;;;;;3.10;1.67;;;;;;;;;;5045986;28;20953;-66
2023/08/05 11:17:02;;;;;;;3.90;1.90;;;;;;;;;;5045090;28;20020;-65
2023/08/05 11:19:27;;;;;;;3.30;1.77;;;;;;;;;;5065507;28;20117;-65
2023/08/05 11:21:52;;;;;;;2.25;1.48;;;;;;;;;;5060952;28;20191;-66
2023/08/05 11:24:18;;;;;;;4.20;1.90;;;;;;;;;;5065164;28;20052;-66
2023/08/05 11:26:44;;;;;;;3.10;1.85;;;;;;;;;;5082452;28;20463;-65
2023/08/05 11:29:09;;;;;;;2.80;1.67;;;;;;;;;;5103371;28;20474;-65
2023/08/05 11:31:34;;;;;;;4.22;2.03;;;;;;;;;;5099079;28;20027;-65
2023/08/05 11:34:00;;;;;;;3.40;1.65;;;;;;;;;;5098726;28;20077;-64
2023/08/05 11:36:26;;;;;;;3.55;1.67;;;;;;;;;;5098514;28;20042;-65
2023/08/05 11:38:51;;;;;;;2.33;1.30;;;;;;;;;;5098531;28;20036;-65
2023/08/05 11:41:16;;;;;;;3.30;1.63;;;;;;;;;;5095166;28;20032;-65
2023/08/05 11:43:42;;;;;;;5.22;2.28;;;;;;;;;;5097428;28;20023;-66
2023/08/05 11:46:07;;;;;;;2.92;1.90;;;;;;;;;;5073734;28;20286;-65
2023/08/05 11:48:32;;;;;;;4.80;3.30;;;;;;;;;;5073022;28;20024;-64
2023/08/05 11:50:59;;;;;;;4.97;3.20;;;;;;;;;;5096973;28;20106;-65
2023/08/05 11:53:25;;;;;;;5.28;3.80;;;;;;;;;;5110925;28;20084;-65
2023/08/05 11:55:51;;;;;;;7.80;6.00;;;;;;;;;;5102161;28;20149;-64
2023/08/05 11:58:16;;;;;;;5.30;4.25;;;;;;;;;;5096868;28;20491;-65
2023/08/05 12:00:46;;;;;;;5.55;4.53;;;;;;;;;;5094420;28;20023;-64
2023/08/05 12:03:11;;;;;;;5.65;4.95;;;;;;;;;;5094232;28;20069;-64
2023/08/05 12:05:36;;;;;;;6.53;5.60;;;;;;;;;;5107617;28;20550;-65
2023/08/05 12:08:02;;;;;;;7.55;5.70;;;;;;;;;;5112612;28;20030;-67
2023/08/05 12:10:29;;;;;;;8.50;7.05;;;;;;;;;;5113163;28;20020;-66
2023/08/05 12:12:55;;;;;;;7.45;5.47;;;;;;;;;;5093340;28;20112;-65
2023/08/05 12:15:26;;;;;;;5.82;5.15;;;;;;;;;;5088817;28;20099;-66
2023/08/05 12:18:02;;;;;;;6.47;5.88;;;;;;;;;;5098182;28;20338;-65
2023/08/05 12:20:31;;;;;;;6.00;5.40;;;;;;;;;;5113103;28;20178;-64
2023/08/05 12:22:58;;;;;;;7.38;5.22;;;;;;;;;;5106116;28;20035;-64
2023/08/05 12:25:24;;;;;;;6.80;5.65;;;;;;;;;;5084497;28;20445;-64
2023/08/05 12:27:49;;;;;;;9.27;6.20;;;;;;;;;;5110314;28;20107;-64
2023/08/05 12:30:15;;;;;;;5.43;4.93;;;;;;;;;;5112912;28;20378;-64
2023/08/05 12:32:40;;;;;;;9.80;5.30;;;;;;;;;;5108481;28;20409;-64
2023/08/05 12:35:08;;;;;;;8.85;5.50;;;;;;;;;;5101683;28;20035;-64
2023/08/05 12:37:35;;;;;;;8.80;5.70;;;;;;;;;;5099796;28;20059;-64
2023/08/05 12:40:01;;;;;;;6.03;5.43;;;;;;;;;;5111672;28;20402;-64
2023/08/05 12:42:26;;;;;;;7.22;5.43;;;;;;;;;;5100265;28;20077;-64
2023/08/05 12:44:52;;;;;;;6.68;5.55;;;;;;;;;;5112519;28;20027;-64
2023/08/05 12:47:18;;;;;;;6.57;5.43;;;;;;;;;;5095826;28;20035;-63
2023/08/05 12:49:43;;;;;;;7.93;4.78;;;;;;;;;;5083665;28;20296;-63
2023/08/05 12:52:09;;;;;;;6.47;4.63;;;;;;;;;;5074926;28;20028;-66
2023/08/05 12:54:34;;;;;;;6.83;4.50;;;;;;;;;;5048913;28;20023;-63
2023/08/05 12:56:59;;;;;;;4.95;3.58;;;;;;;;;;5050135;28;21258;-64
2023/08/05 12:59:25;;;;;;;8.30;4.80;;;;;;;;;;5050509;28;20031;-62
2023/08/05 13:01:50;;;;;;;6.13;4.53;;;;;;;;;;5080208;28;20530;-65
2023/08/05 13:04:15;;;;;;;5.72;5.00;;;;;;;;;;5054290;28;20860;-65
2023/08/05 13:06:40;;;;;;;6.53;5.35;;;;;;;;;;5055964;28;20020;-64
2023/08/05 13:09:06;;;;;;;5.80;5.20;;;;;;;;;;5050678;28;20047;-64
2023/08/05 13:11:31;;;;;;;6.93;6.22;;;;;;;;;;5053703;28;20910;-65
2023/08/05 13:13:56;;;;;;;8.48;7.55;;;;;;;;;;5095513;28;20036;-64
2023/08/05 13:16:22;;;;;;;8.47;7.50;;;;;;;;;;5094764;28;20498;-65
2023/08/05 13:18:47;;;;;;;7.23;6.53;;;;;;;;;;5100551;28;20621;-64
2023/08/05 13:21:12;;;;;;;9.20;6.87;;;;;;;;;;5069882;28;20271;-64
2023/08/05 13:23:37;;;;;;;8.90;8.00;;;;;;;;;;5102878;28;20269;-64
2023/08/05 13:26:02;;;;;;;8.00;6.85;;;;;;;;;;5098731;28;20270;-65
2023/08/05 13:28:28;;;;;;;6.93;6.17;;;;;;;;;;5111200;28;20427;-65
2023/08/05 13:30:59;;;;;;;7.38;6.22;;;;;;;;;;5097219;28;20783;-65
2023/08/05 13:33:25;;;;;;;6.50;5.90;;;;;;;;;;5102175;28;20077;-65
2023/08/05 13:35:50;;;;;;;6.97;5.70;;;;;;;;;;5096116;28;20103;-63
2023/08/05 13:38:15;;;;;;;6.63;5.30;;;;;;;;;;5101878;28;20329;-64
2023/08/05 13:40:40;;;;;;;5.47;4.97;;;;;;;;;;5099015;28;20277;-64
2023/08/05 13:43:05;;;;;;;4.93;4.37;;;;;;;;;;5093992;28;20756;-64
2023/08/05 13:45:33;;;;;;;6.40;3.83;;;;;;;;;;5097019;28;20608;-64
2023/08/05 13:47:58;;;;;;;6.25;5.05;;;;;;;;;;5103526;28;20278;-65
2023/08/05 13:50:24;;;;;;;4.23;3.43;;;;;;;;;;5098813;28;20099;-65
2023/08/05 13:52:49;;;;;;;5.90;3.67;;;;;;;;;;5088750;28;20276;-65
2023/08/05 13:55:14;;;;;;;5.15;3.40;;;;;;;;;;5103158;28;20265;-64
2023/08/05 13:57:39;;;;;;;4.55;3.08;;;;;;;;;;5099581;28;20024;-65
2023/08/05 14:00:05;;;;;;;5.73;3.43;;;;;;;;;;5102741;28;20016;-65
2023/08/05 14:02:30;;;;;;;4.35;3.08;;;;;;;;;;5099340;28;20704;-64
2023/08/05 14:04:55;;;;;;;3.83;3.10;;;;;;;;;;5102528;28;20125;-65
2023/08/05 14:07:21;;;;;;;5.05;3.38;;;;;;;;;;5106177;28;20590;-65
2023/08/05 14:09:46;;;;;;;4.93;2.80;;;;;;;;;;5095435;28;20016;-65
2023/08/05 14:12:11;;;;;;;3.47;2.63;;;;;;;;;;5102595;28;20072;-65
2023/08/05 14:14:36;;;;;;;3.77;2.47;;;;;;;;;;5086746;28;20366;-64
2023/08/05 14:17:02;;;;;;;6.43;2.80;;;;;;;;;;5091538;28;20289;-65
2023/08/05 14:19:27;;;;;;;5.18;3.00;;;;;;;;;;5091058;28;20305;-65
2023/08/05 14:21:52;;;;;;;4.37;3.13;;;;;;;;;;5091377;28;20102;-65
2023/08/05 14:24:17;;;;;;;3.80;2.67;;;;;;;;;;5101257;28;20282;-65
2023/08/05 14:26:42;;;;;;;4.00;2.43;;;;;;;;;;5111066;28;20278;-65
2023/08/05 14:29:08;;;;;;;6.68;3.40;;;;;;;;;;5107717;28;20262;-66